sensor_id;sensor_type;location;lat;lon;timestamp;temperature;humidity
9305;DHT22;4690;52.422;13.486;2024-03-06T00:10:01;0.40;99.90
9305;DHT22;4690;52.422;13.486;2024-03-06T00:12:26;0.40;99.90
9305;DHT22;4690;52.422;13.486;2024-03-06T00:14:52;0.30;99.90
9305;DHT22;4690;52.422;13.486;2024-03-06T00:17:18;0.30;99.90
9305;DHT22;4690;52.422;13.486;2024-03-06T00:19:44;0.30;99.90
9305;DHT22;4690;52.422;13.486;2024-03-06T00:22:09;0.30;99.90
9305;DHT22;4690;52.422;13.486;2024-03-06T00:24:35;0.30;99.90
9305;DHT22;4690;52.422;13.486;2024-03-06T00:27:01;0.30;99.90
9305;DHT22;4690;52.422;13.486;2024-03-06T00:29:27;0.30;99.90
9305;DHT22;4690;52.422;13.486;2024-03-06T00:31:52;0.30;99.90
9305;DHT22;4690;52.422;13.486;2024-03-06T00:34:19;0.30;99.90
9305;DHT22;4690;52.422;13.486;2024-03-06T00:36:45;0.20;99.90
9305;DHT22;4690;52.422;13.486;2024-03-06T00:39:12;0.30;99.90
9305;DHT22;4690;52.422;13.486;2024-03-06T00:41:40;0.30;99.90
9305;DHT22;4690;52.422;13.486;2024-03-06T00:44:06;0.30;99.90
9305;DHT22;4690;52.422;13.486;2024-03-06T00:46:32;0.20;99.90
9305;DHT22;4690;52.422;13.486;2024-03-06T00:48:58;0.30;99.90
9305;DHT22;4690;52.422;13.486;2024-03-06T00:51:24;0.30;99.90
9305;DHT22;4690;52.422;13.486;2024-03-06T00:53:49;0.30;99.90
9305;DHT22;4690;52.422;13.486;2024-03-06T00:56:15;0.20;99.90
9305;DHT22;4690;52.422;13.486;2024-03-06T00:58:41;0.20;99.90
9305;DHT22;4690;52.422;13.486;2024-03-06T01:01:06;0.20;99.90
9305;DHT22;4690;52.422;13.486;2024-03-06T01:03:32;0.20;99.90
9305;DHT22;4690;52.422;13.486;2024-03-06T01:05:58;0.20;99.90
9305;DHT22;4690;52.422;13.486;2024-03-06T01:08:24;0.30;99.90
9305;DHT22;4690;52.422;13.486;2024-03-06T01:10:51;0.20;99.90
9305;DHT22;4690;52.422;13.486;2024-03-06T01:13:18;0.20;99.90
9305;DHT22;4690;52.422;13.486;2024-03-06T01:15:44;0.20;99.90
9305;DHT22;4690;52.422;13.486;2024-03-06T01:18:10;0.20;99.90
9305;DHT22;4690;52.422;13.486;2024-03-06T01:20:36;0.20;99.90
9305;DHT22;4690;52.422;13.486;2024-03-06T01:23:02;0.20;99.90
9305;DHT22;4690;52.422;13.486;2024-03-06T01:25:29;0.20;99.90
9305;DHT22;4690;52.422;13.486;2024-03-06T01:27:54;0.20;99.90
9305;DHT22;4690;52.422;13.486;2024-03-06T01:30:20;0.20;99.90
9305;DHT22;4690;52.422;13.486;2024-03-06T01:32:46;0.10;99.90
9305;DHT22;4690;52.422;13.486;2024-03-06T01:35:12;0.20;99.90
9305;DHT22;4690;52.422;13.486;2024-03-06T01:37:38;0.10;99.90
9305;DHT22;4690;52.422;13.486;2024-03-06T01:40:04;0.10;99.90
9305;DHT22;4690;52.422;13.486;2024-03-06T01:42:30;0.10;99.90
9305;DHT22;4690;52.422;13.486;2024-03-06T01:44:57;0.10;99.90
9305;DHT22;4690;52.422;13.486;2024-03-06T01:47:22;0.10;99.90
9305;DHT22;4690;52.422;13.486;2024-03-06T01:49:48;0.10;99.90
9305;DHT22;4690;52.422;13.486;2024-03-06T01:52:16;0.00;99.90
9305;DHT22;4690;52.422;13.486;2024-03-06T01:54:44;0.10;99.90
9305;DHT22;4690;52.422;13.486;2024-03-06T01:57:15;0.10;99.90
9305;DHT22;4690;52.422;13.486;2024-03-06T01:59:43;0.00;99.90
9305;DHT22;4690;52.422;13.486;2024-03-06T02:02:09;0.00;99.90
9305;DHT22;4690;52.422;13.486;2024-03-06T02:04:37;0.00;99.90
9305;DHT22;4690;52.422;13.486;2024-03-06T02:07:05;0.00;99.90
9305;DHT22;4690;52.422;13.486;2024-03-06T02:09:36;0.00;99.90
9305;DHT22;4690;52.422;13.486;2024-03-06T02:12:04;0.00;99.90
9305;DHT22;4690;52.422;13.486;2024-03-06T02:14:30;0.00;99.90
9305;DHT22;4690;52.422;13.486;2024-03-06T02:16:56;0.00;99.90
9305;DHT22;4690;52.422;13.486;2024-03-06T02:19:22;-0.10;99.90
9305;DHT22;4690;52.422;13.486;2024-03-06T02:21:48;0.00;99.90
9305;DHT22;4690;52.422;13.486;2024-03-06T02:24:13;-0.10;99.90
9305;DHT22;4690;52.422;13.486;2024-03-06T02:26:39;-0.10;99.90
9305;DHT22;4690;52.422;13.486;2024-03-06T02:29:06;-0.10;99.90
9305;DHT22;4690;52.422;13.486;2024-03-06T02:31:32;-0.10;99.90
9305;DHT22;4690;52.422;13.486;2024-03-06T02:33:58;-0.10;99.90
9305;DHT22;4690;52.422;13.486;2024-03-06T02:36:24;-0.10;99.90
9305;DHT22;4690;52.422;13.486;2024-03-06T02:38:50;-0.10;99.90
9305;DHT22;4690;52.422;13.486;2024-03-06T02:41:16;-0.10;99.90
9305;DHT22;4690;52.422;13.486;2024-03-06T02:43:43;-0.10;99.90
9305;DHT22;4690;52.422;13.486;2024-03-06T02:46:08;-0.20;99.90
9305;DHT22;4690;52.422;13.486;2024-03-06T02:48:34;-0.20;99.90
9305;DHT22;4690;52.422;13.486;2024-03-06T02:51:00;-0.10;99.90
9305;DHT22;4690;52.422;13.486;2024-03-06T02:53:26;-0.10;99.90
9305;DHT22;4690;52.422;13.486;2024-03-06T02:55:53;-0.10;99.90
9305;DHT22;4690;52.422;13.486;2024-03-06T02:58:19;-0.20;99.90
9305;DHT22;4690;52.422;13.486;2024-03-06T03:00:44;-0.20;99.90
9305;DHT22;4690;52.422;13.486;2024-03-06T03:03:10;-0.20;99.90
9305;DHT22;4690;52.422;13.486;2024-03-06T03:05:40;-0.20;99.90
9305;DHT22;4690;52.422;13.486;2024-03-06T03:08:09;-0.20;99.90
9305;DHT22;4690;52.422;13.486;2024-03-06T03:10:34;-0.20;99.90
9305;DHT22;4690;52.422;13.486;2024-03-06T03:13:01;-0.20;99.90
9305;DHT22;4690;52.422;13.486;2024-03-06T03:15:27;-0.20;99.90
9305;DHT22;4690;52.422;13.486;2024-03-06T03:17:53;-0.20;99.90
9305;DHT22;4690;52.422;13.486;2024-03-06T03:20:19;-0.10;99.90
9305;DHT22;4690;52.422;13.486;2024-03-06T03:22:44;-0.20;99.90
9305;DHT22;4690;52.422;13.486;2024-03-06T03:25:11;-0.20;99.90
9305;DHT22;4690;52.422;13.486;2024-03-06T03:27:38;-0.20;99.90
9305;DHT22;4690;52.422;13.486;2024-03-06T03:30:12;-0.20;99.90
9305;DHT22;4690;52.422;13.486;2024-03-06T03:32:39;-0.20;99.90
9305;DHT22;4690;52.422;13.486;2024-03-06T03:35:05;-0.20;99.90
9305;DHT22;4690;52.422;13.486;2024-03-06T03:37:32;-0.20;99.90
9305;DHT22;4690;52.422;13.486;2024-03-06T03:39:58;-0.20;99.90
9305;DHT22;4690;52.422;13.486;2024-03-06T03:42:24;-0.20;99.90
9305;DHT22;4690;52.422;13.486;2024-03-06T03:44:50;-0.20;99.90
9305;DHT22;4690;52.422;13.486;2024-03-06T03:47:15;-0.20;99.90
9305;DHT22;4690;52.422;13.486;2024-03-06T03:49:41;-0.20;99.90
9305;DHT22;4690;52.422;13.486;2024-03-06T03:52:08;-0.20;99.90
9305;DHT22;4690;52.422;13.486;2024-03-06T03:54:33;-0.30;99.90
9305;DHT22;4690;52.422;13.486;2024-03-06T03:57:00;-0.20;99.90
9305;DHT22;4690;52.422;13.486;2024-03-06T03:59:26;-0.20;99.90
9305;DHT22;4690;52.422;13.486;2024-03-06T04:01:52;-0.20;99.90
9305;DHT22;4690;52.422;13.486;2024-03-06T04:04:18;-0.20;99.90
9305;DHT22;4690;52.422;13.486;2024-03-06T04:06:44;-0.20;99.90
9305;DHT22;4690;52.422;13.486;2024-03-06T04:09:10;-0.20;99.90
9305;DHT22;4690;52.422;13.486;2024-03-06T04:11:38;-0.20;99.90
9305;DHT22;4690;52.422;13.486;2024-03-06T04:14:04;-0.20;99.90
9305;DHT22;4690;52.422;13.486;2024-03-06T04:16:34;-0.20;99.90
9305;DHT22;4690;52.422;13.486;2024-03-06T04:19:00;-0.20;99.90
9305;DHT22;4690;52.422;13.486;2024-03-06T04:21:27;-0.20;99.90
9305;DHT22;4690;52.422;13.486;2024-03-06T04:23:53;-0.20;99.90
9305;DHT22;4690;52.422;13.486;2024-03-06T04:26:19;-0.20;99.90
9305;DHT22;4690;52.422;13.486;2024-03-06T04:28:45;-0.20;99.90
9305;DHT22;4690;52.422;13.486;2024-03-06T04:31:11;-0.20;99.90
9305;DHT22;4690;52.422;13.486;2024-03-06T04:33:37;-0.20;99.90
9305;DHT22;4690;52.422;13.486;2024-03-06T04:36:04;-0.10;99.90
9305;DHT22;4690;52.422;13.486;2024-03-06T04:38:34;-0.20;99.90
9305;DHT22;4690;52.422;13.486;2024-03-06T04:41:00;-0.20;99.90
9305;DHT22;4690;52.422;13.486;2024-03-06T04:43:25;-0.20;99.90
9305;DHT22;4690;52.422;13.486;2024-03-06T04:45:51;-0.20;99.90
9305;DHT22;4690;52.422;13.486;2024-03-06T04:48:17;-0.20;99.90
9305;DHT22;4690;52.422;13.486;2024-03-06T04:50:43;-0.20;99.90
9305;DHT22;4690;52.422;13.486;2024-03-06T04:53:10;-0.20;99.90
9305;DHT22;4690;52.422;13.486;2024-03-06T04:55:36;-0.20;99.90
9305;DHT22;4690;52.422;13.486;2024-03-06T04:58:02;-0.20;99.90
9305;DHT22;4690;52.422;13.486;2024-03-06T05:00:29;-0.20;99.90
9305;DHT22;4690;52.422;13.486;2024-03-06T05:02:55;-0.20;99.90
9305;DHT22;4690;52.422;13.486;2024-03-06T05:05:21;-0.20;99.90
9305;DHT22;4690;52.422;13.486;2024-03-06T05:07:48;-0.20;99.90
9305;DHT22;4690;52.422;13.486;2024-03-06T05:10:14;-0.20;99.90
9305;DHT22;4690;52.422;13.486;2024-03-06T05:12:42;-0.20;99.90
9305;DHT22;4690;52.422;13.486;2024-03-06T05:15:08;-0.20;99.90
9305;DHT22;4690;52.422;13.486;2024-03-06T05:17:35;-0.20;99.90
9305;DHT22;4690;52.422;13.486;2024-03-06T05:20:01;-0.20;99.90
9305;DHT22;4690;52.422;13.486;2024-03-06T05:22:30;-0.20;99.90
9305;DHT22;4690;52.422;13.486;2024-03-06T05:24:56;-0.20;99.90
9305;DHT22;4690;52.422;13.486;2024-03-06T05:27:22;-0.20;99.90
9305;DHT22;4690;52.422;13.486;2024-03-06T05:29:47;-0.20;99.90
9305;DHT22;4690;52.422;13.486;2024-03-06T05:32:13;-0.20;99.90
9305;DHT22;4690;52.422;13.486;2024-03-06T05:34:39;-0.10;99.90
9305;DHT22;4690;52.422;13.486;2024-03-06T05:37:05;-0.10;99.90
9305;DHT22;4690;52.422;13.486;2024-03-06T05:39:31;-0.10;99.90
9305;DHT22;4690;52.422;13.486;2024-03-06T05:42:02;-0.10;99.90
9305;DHT22;4690;52.422;13.486;2024-03-06T05:44:29;0.00;99.90
9305;DHT22;4690;52.422;13.486;2024-03-06T05:46:58;0.00;99.90
9305;DHT22;4690;52.422;13.486;2024-03-06T05:49:26;0.00;99.90
9305;DHT22;4690;52.422;13.486;2024-03-06T05:51:53;-0.10;99.90
9305;DHT22;4690;52.422;13.486;2024-03-06T05:54:22;0.00;99.90
9305;DHT22;4690;52.422;13.486;2024-03-06T05:56:49;0.00;99.90
9305;DHT22;4690;52.422;13.486;2024-03-06T05:59:17;0.00;99.90
9305;DHT22;4690;52.422;13.486;2024-03-06T06:01:44;0.00;99.90
9305;DHT22;4690;52.422;13.486;2024-03-06T06:04:10;0.10;99.90
9305;DHT22;4690;52.422;13.486;2024-03-06T06:06:37;0.00;99.90
9305;DHT22;4690;52.422;13.486;2024-03-06T06:09:03;0.10;99.90
9305;DHT22;4690;52.422;13.486;2024-03-06T06:11:35;0.10;99.90
9305;DHT22;4690;52.422;13.486;2024-03-06T06:14:01;0.10;99.90
9305;DHT22;4690;52.422;13.486;2024-03-06T06:16:27;0.20;99.90
9305;DHT22;4690;52.422;13.486;2024-03-06T06:18:52;0.20;99.90
9305;DHT22;4690;52.422;13.486;2024-03-06T06:21:18;0.30;99.90
9305;DHT22;4690;52.422;13.486;2024-03-06T06:23:44;0.30;99.90
9305;DHT22;4690;52.422;13.486;2024-03-06T06:26:11;0.50;99.90
9305;DHT22;4690;52.422;13.486;2024-03-06T06:28:37;0.60;99.90
9305;DHT22;4690;52.422;13.486;2024-03-06T06:31:06;0.70;99.90
9305;DHT22;4690;52.422;13.486;2024-03-06T06:33:31;0.80;99.90
9305;DHT22;4690;52.422;13.486;2024-03-06T06:35:57;0.90;99.90
9305;DHT22;4690;52.422;13.486;2024-03-06T06:38:23;1.00;99.90
9305;DHT22;4690;52.422;13.486;2024-03-06T06:40:48;1.10;99.90
9305;DHT22;4690;52.422;13.486;2024-03-06T06:43:14;1.30;99.90
9305;DHT22;4690;52.422;13.486;2024-03-06T06:45:41;1.40;99.90
9305;DHT22;4690;52.422;13.486;2024-03-06T06:48:07;1.50;99.90
9305;DHT22;4690;52.422;13.486;2024-03-06T06:50:34;1.70;99.90
9305;DHT22;4690;52.422;13.486;2024-03-06T06:53:00;1.70;99.90
9305;DHT22;4690;52.422;13.486;2024-03-06T06:55:27;1.80;99.90
9305;DHT22;4690;52.422;13.486;2024-03-06T06:57:53;1.90;99.90
9305;DHT22;4690;52.422;13.486;2024-03-06T07:00:19;1.90;99.90
9305;DHT22;4690;52.422;13.486;2024-03-06T07:02:47;1.90;99.90
9305;DHT22;4690;52.422;13.486;2024-03-06T07:05:13;1.90;99.90
9305;DHT22;4690;52.422;13.486;2024-03-06T07:07:39;1.90;99.90
9305;DHT22;4690;52.422;13.486;2024-03-06T07:10:05;1.80;99.90
9305;DHT22;4690;52.422;13.486;2024-03-06T07:12:32;1.90;99.90
9305;DHT22;4690;52.422;13.486;2024-03-06T07:14:58;1.60;99.90
9305;DHT22;4690;52.422;13.486;2024-03-06T07:17:24;1.80;99.90
9305;DHT22;4690;52.422;13.486;2024-03-06T07:19:50;1.70;99.90
9305;DHT22;4690;52.422;13.486;2024-03-06T07:22:18;1.60;99.90
9305;DHT22;4690;52.422;13.486;2024-03-06T07:24:44;1.70;99.90
9305;DHT22;4690;52.422;13.486;2024-03-06T07:27:10;1.80;99.90
9305;DHT22;4690;52.422;13.486;2024-03-06T07:29:37;1.90;99.90
9305;DHT22;4690;52.422;13.486;2024-03-06T07:32:03;1.90;99.90
9305;DHT22;4690;52.422;13.486;2024-03-06T07:34:31;2.00;99.90
9305;DHT22;4690;52.422;13.486;2024-03-06T07:36:57;2.00;99.90
9305;DHT22;4690;52.422;13.486;2024-03-06T07:39:26;2.00;99.90
9305;DHT22;4690;52.422;13.486;2024-03-06T07:41:52;2.10;99.90
9305;DHT22;4690;52.422;13.486;2024-03-06T07:44:19;2.40;99.90
9305;DHT22;4690;52.422;13.486;2024-03-06T07:46:45;2.40;99.90
9305;DHT22;4690;52.422;13.486;2024-03-06T07:49:11;2.50;99.90
9305;DHT22;4690;52.422;13.486;2024-03-06T07:51:37;2.60;99.90
9305;DHT22;4690;52.422;13.486;2024-03-06T07:54:03;2.60;99.90
9305;DHT22;4690;52.422;13.486;2024-03-06T07:56:31;2.70;99.90
9305;DHT22;4690;52.422;13.486;2024-03-06T07:58:57;2.60;99.90
9305;DHT22;4690;52.422;13.486;2024-03-06T08:01:23;2.80;99.90
9305;DHT22;4690;52.422;13.486;2024-03-06T08:03:49;2.80;99.90
9305;DHT22;4690;52.422;13.486;2024-03-06T08:06:15;3.10;99.90
9305;DHT22;4690;52.422;13.486;2024-03-06T08:08:44;3.10;99.90
9305;DHT22;4690;52.422;13.486;2024-03-06T08:11:11;3.30;99.90
9305;DHT22;4690;52.422;13.486;2024-03-06T08:13:38;3.00;99.90
9305;DHT22;4690;52.422;13.486;2024-03-06T08:16:05;3.20;99.90
9305;DHT22;4690;52.422;13.486;2024-03-06T08:18:33;3.50;99.90
9305;DHT22;4690;52.422;13.486;2024-03-06T08:21:00;3.30;99.90
9305;DHT22;4690;52.422;13.486;2024-03-06T08:23:26;3.70;99.90
9305;DHT22;4690;52.422;13.486;2024-03-06T08:25:52;3.80;99.90
9305;DHT22;4690;52.422;13.486;2024-03-06T08:28:18;4.20;99.90
9305;DHT22;4690;52.422;13.486;2024-03-06T08:30:44;4.50;99.90
9305;DHT22;4690;52.422;13.486;2024-03-06T08:33:11;4.80;99.90
9305;DHT22;4690;52.422;13.486;2024-03-06T08:35:37;4.70;99.90
9305;DHT22;4690;52.422;13.486;2024-03-06T08:38:03;5.30;99.90
9305;DHT22;4690;52.422;13.486;2024-03-06T08:40:29;5.80;99.90
9305;DHT22;4690;52.422;13.486;2024-03-06T08:42:56;6.10;99.90
9305;DHT22;4690;52.422;13.486;2024-03-06T08:45:22;6.00;99.90
9305;DHT22;4690;52.422;13.486;2024-03-06T08:47:50;6.00;99.90
9305;DHT22;4690;52.422;13.486;2024-03-06T08:50:19;6.30;99.90
9305;DHT22;4690;52.422;13.486;2024-03-06T08:52:45;6.50;99.90
9305;DHT22;4690;52.422;13.486;2024-03-06T08:55:11;6.50;99.90
9305;DHT22;4690;52.422;13.486;2024-03-06T08:57:38;6.60;99.90
9305;DHT22;4690;52.422;13.486;2024-03-06T09:00:05;6.80;99.90
9305;DHT22;4690;52.422;13.486;2024-03-06T09:02:35;6.90;99.90
9305;DHT22;4690;52.422;13.486;2024-03-06T09:05:07;6.80;99.90
9305;DHT22;4690;52.422;13.486;2024-03-06T09:07:36;7.10;99.90
9305;DHT22;4690;52.422;13.486;2024-03-06T09:10:10;6.70;99.90
9305;DHT22;4690;52.422;13.486;2024-03-06T09:12:36;6.50;99.90
9305;DHT22;4690;52.422;13.486;2024-03-06T09:15:03;6.30;99.90
9305;DHT22;4690;52.422;13.486;2024-03-06T09:17:30;6.40;99.90
9305;DHT22;4690;52.422;13.486;2024-03-06T09:19:56;6.60;99.90
9305;DHT22;4690;52.422;13.486;2024-03-06T09:22:22;6.50;99.90
9305;DHT22;4690;52.422;13.486;2024-03-06T09:24:48;6.40;99.90
9305;DHT22;4690;52.422;13.486;2024-03-06T09:27:15;6.50;99.90
9305;DHT22;4690;52.422;13.486;2024-03-06T09:29:42;6.70;99.90
9305;DHT22;4690;52.422;13.486;2024-03-06T09:32:08;6.80;99.90
9305;DHT22;4690;52.422;13.486;2024-03-06T09:34:34;6.90;99.90
9305;DHT22;4690;52.422;13.486;2024-03-06T09:37:00;7.00;99.90
9305;DHT22;4690;52.422;13.486;2024-03-06T09:39:26;7.10;99.90
9305;DHT22;4690;52.422;13.486;2024-03-06T09:41:53;6.90;99.90
9305;DHT22;4690;52.422;13.486;2024-03-06T09:44:20;6.50;99.90
9305;DHT22;4690;52.422;13.486;2024-03-06T09:46:47;6.70;99.90
9305;DHT22;4690;52.422;13.486;2024-03-06T09:49:16;6.70;99.90
9305;DHT22;4690;52.422;13.486;2024-03-06T09:51:47;7.00;99.90
9305;DHT22;4690;52.422;13.486;2024-03-06T09:54:19;6.80;99.90
9305;DHT22;4690;52.422;13.486;2024-03-06T09:56:47;6.40;99.90
9305;DHT22;4690;52.422;13.486;2024-03-06T09:59:14;6.20;99.90
9305;DHT22;4690;52.422;13.486;2024-03-06T10:01:52;6.30;99.90
9305;DHT22;4690;52.422;13.486;2024-03-06T10:04:24;6.50;99.90
9305;DHT22;4690;52.422;13.486;2024-03-06T10:06:58;6.80;99.90
9305;DHT22;4690;52.422;13.486;2024-03-06T10:09:25;6.90;99.90
9305;DHT22;4690;52.422;13.486;2024-03-06T10:11:53;6.80;99.90
9305;DHT22;4690;52.422;13.486;2024-03-06T10:14:21;6.90;99.90
9305;DHT22;4690;52.422;13.486;2024-03-06T10:19:23;7.30;99.90
9305;DHT22;4690;52.422;13.486;2024-03-06T10:21:50;7.40;99.90
9305;DHT22;4690;52.422;13.486;2024-03-06T10:24:24;7.30;99.90
9305;DHT22;4690;52.422;13.486;2024-03-06T10:26:58;7.50;99.90
9305;DHT22;4690;52.422;13.486;2024-03-06T10:29:25;7.60;99.90
9305;DHT22;4690;52.422;13.486;2024-03-06T10:31:53;7.70;99.90
9305;DHT22;4690;52.422;13.486;2024-03-06T10:34:23;8.00;99.90
9305;DHT22;4690;52.422;13.486;2024-03-06T10:37:03;8.30;99.90
9305;DHT22;4690;52.422;13.486;2024-03-06T10:39:30;8.70;99.90
9305;DHT22;4690;52.422;13.486;2024-03-06T10:42:06;8.60;99.90
9305;DHT22;4690;52.422;13.486;2024-03-06T10:44:34;8.40;99.90
9305;DHT22;4690;52.422;13.486;2024-03-06T10:47:03;8.30;99.90
9305;DHT22;4690;52.422;13.486;2024-03-06T10:49:31;8.10;99.90
9305;DHT22;4690;52.422;13.486;2024-03-06T10:52:04;7.90;99.90
9305;DHT22;4690;52.422;13.486;2024-03-06T10:54:33;7.60;99.90
9305;DHT22;4690;52.422;13.486;2024-03-06T10:57:08;7.50;99.90
9305;DHT22;4690;52.422;13.486;2024-03-06T10:59:35;7.50;99.90
9305;DHT22;4690;52.422;13.486;2024-03-06T11:02:01;7.40;99.90
9305;DHT22;4690;52.422;13.486;2024-03-06T11:04:29;7.30;99.90
9305;DHT22;4690;52.422;13.486;2024-03-06T11:06:59;7.80;99.90
9305;DHT22;4690;52.422;13.486;2024-03-06T11:09:27;8.40;99.90
9305;DHT22;4690;52.422;13.486;2024-03-06T11:12:06;8.20;99.90
9305;DHT22;4690;52.422;13.486;2024-03-06T11:14:36;8.20;99.90
9305;DHT22;4690;52.422;13.486;2024-03-06T11:17:08;8.40;99.90
9305;DHT22;4690;52.422;13.486;2024-03-06T11:30:47;8.60;99.90
9305;DHT22;4690;52.422;13.486;2024-03-06T11:33:40;8.50;99.90
9305;DHT22;4690;52.422;13.486;2024-03-06T11:39:05;7.80;99.90
9305;DHT22;4690;52.422;13.486;2024-03-06T11:41:47;7.90;99.90
9305;DHT22;4690;52.422;13.486;2024-03-06T11:44:18;7.60;99.90
9305;DHT22;4690;52.422;13.486;2024-03-06T11:46:56;7.80;99.90
9305;DHT22;4690;52.422;13.486;2024-03-06T11:49:28;8.40;99.90
9305;DHT22;4690;52.422;13.486;2024-03-06T11:51:58;8.60;99.90
9305;DHT22;4690;52.422;13.486;2024-03-06T11:54:26;8.60;99.90
9305;DHT22;4690;52.422;13.486;2024-03-06T11:56:54;8.40;99.90
9305;DHT22;4690;52.422;13.486;2024-03-06T11:59:23;8.50;99.90
9305;DHT22;4690;52.422;13.486;2024-03-06T12:01:53;8.20;99.90
9305;DHT22;4690;52.422;13.486;2024-03-06T12:04:33;8.00;99.90
9305;DHT22;4690;52.422;13.486;2024-03-06T12:07:01;8.10;99.90
9305;DHT22;4690;52.422;13.486;2024-03-06T12:09:35;8.40;99.90
9305;DHT22;4690;52.422;13.486;2024-03-06T12:12:03;8.80;99.90
9305;DHT22;4690;52.422;13.486;2024-03-06T12:14:29;9.20;99.90
9305;DHT22;4690;52.422;13.486;2024-03-06T12:19:22;10.00;99.90
9305;DHT22;4690;52.422;13.486;2024-03-06T12:21:48;9.80;99.90
9305;DHT22;4690;52.422;13.486;2024-03-06T12:24:16;10.30;99.90
9305;DHT22;4690;52.422;13.486;2024-03-06T12:26:44;10.40;99.90
9305;DHT22;4690;52.422;13.486;2024-03-06T12:29:11;9.80;99.90
9305;DHT22;4690;52.422;13.486;2024-03-06T12:31:39;9.90;99.90
9305;DHT22;4690;52.422;13.486;2024-03-06T12:34:07;10.10;99.90
9305;DHT22;4690;52.422;13.486;2024-03-06T12:36:34;9.90;99.90
9305;DHT22;4690;52.422;13.486;2024-03-06T12:39:02;9.40;99.90
9305;DHT22;4690;52.422;13.486;2024-03-06T12:41:29;9.30;99.90
9305;DHT22;4690;52.422;13.486;2024-03-06T12:43:56;9.40;99.90
9305;DHT22;4690;52.422;13.486;2024-03-06T12:46:25;9.40;99.90
9305;DHT22;4690;52.422;13.486;2024-03-06T12:48:52;9.10;99.90
9305;DHT22;4690;52.422;13.486;2024-03-06T12:51:17;9.00;99.90
9305;DHT22;4690;52.422;13.486;2024-03-06T12:53:43;9.10;99.90
9305;DHT22;4690;52.422;13.486;2024-03-06T12:56:09;8.90;99.90
9305;DHT22;4690;52.422;13.486;2024-03-06T12:58:35;8.80;99.90
9305;DHT22;4690;52.422;13.486;2024-03-06T13:01:01;8.80;99.90
9305;DHT22;4690;52.422;13.486;2024-03-06T13:03:27;8.60;99.90
9305;DHT22;4690;52.422;13.486;2024-03-06T13:05:53;8.60;99.90
9305;DHT22;4690;52.422;13.486;2024-03-06T13:08:19;8.50;99.90
9305;DHT22;4690;52.422;13.486;2024-03-06T13:10:45;8.60;99.90
9305;DHT22;4690;52.422;13.486;2024-03-06T13:13:11;8.40;99.90
9305;DHT22;4690;52.422;13.486;2024-03-06T13:15:37;8.40;99.90
9305;DHT22;4690;52.422;13.486;2024-03-06T13:18:04;8.20;99.90
9305;DHT22;4690;52.422;13.486;2024-03-06T13:20:30;8.30;99.90
9305;DHT22;4690;52.422;13.486;2024-03-06T13:22:56;8.30;99.90
9305;DHT22;4690;52.422;13.486;2024-03-06T13:25:22;8.40;99.90
9305;DHT22;4690;52.422;13.486;2024-03-06T13:27:48;8.30;99.90
9305;DHT22;4690;52.422;13.486;2024-03-06T13:30:15;8.50;99.90
9305;DHT22;4690;52.422;13.486;2024-03-06T13:32:41;8.40;99.90
9305;DHT22;4690;52.422;13.486;2024-03-06T13:35:14;8.90;99.90
9305;DHT22;4690;52.422;13.486;2024-03-06T13:37:40;9.10;99.90
9305;DHT22;4690;52.422;13.486;2024-03-06T13:40:07;9.30;99.90
9305;DHT22;4690;52.422;13.486;2024-03-06T13:42:37;9.00;99.90
9305;DHT22;4690;52.422;13.486;2024-03-06T13:45:06;8.60;99.90
9305;DHT22;4690;52.422;13.486;2024-03-06T13:47:42;8.70;99.90
9305;DHT22;4690;52.422;13.486;2024-03-06T13:50:13;8.60;99.90
9305;DHT22;4690;52.422;13.486;2024-03-06T13:52:41;8.50;99.90
9305;DHT22;4690;52.422;13.486;2024-03-06T13:55:08;8.50;99.90
9305;DHT22;4690;52.422;13.486;2024-03-06T13:57:35;8.30;99.90
9305;DHT22;4690;52.422;13.486;2024-03-06T14:00:09;8.00;99.90
9305;DHT22;4690;52.422;13.486;2024-03-06T14:02:43;8.10;99.90
9305;DHT22;4690;52.422;13.486;2024-03-06T14:05:11;8.00;99.90
9305;DHT22;4690;52.422;13.486;2024-03-06T14:07:38;7.90;99.90
9305;DHT22;4690;52.422;13.486;2024-03-06T14:10:06;7.80;99.90
9305;DHT22;4690;52.422;13.486;2024-03-06T14:12:34;7.70;99.90
9305;DHT22;4690;52.422;13.486;2024-03-06T14:15:01;7.60;99.90
9305;DHT22;4690;52.422;13.486;2024-03-06T14:17:27;7.60;99.90
9305;DHT22;4690;52.422;13.486;2024-03-06T14:19:52;7.60;99.90
9305;DHT22;4690;52.422;13.486;2024-03-06T14:22:18;7.70;99.90
9305;DHT22;4690;52.422;13.486;2024-03-06T14:24:44;7.70;99.90
9305;DHT22;4690;52.422;13.486;2024-03-06T14:27:10;7.70;99.90
9305;DHT22;4690;52.422;13.486;2024-03-06T14:29:37;7.60;99.90
9305;DHT22;4690;52.422;13.486;2024-03-06T14:32:03;7.70;99.90
9305;DHT22;4690;52.422;13.486;2024-03-06T14:34:29;7.70;99.90
9305;DHT22;4690;52.422;13.486;2024-03-06T14:36:55;7.90;99.90
9305;DHT22;4690;52.422;13.486;2024-03-06T14:39:21;7.90;99.90
9305;DHT22;4690;52.422;13.486;2024-03-06T14:41:49;7.90;99.90
9305;DHT22;4690;52.422;13.486;2024-03-06T14:44:15;7.90;99.90
9305;DHT22;4690;52.422;13.486;2024-03-06T14:46:41;8.00;99.90
9305;DHT22;4690;52.422;13.486;2024-03-06T14:49:10;7.90;99.90
9305;DHT22;4690;52.422;13.486;2024-03-06T14:51:36;7.90;99.90
9305;DHT22;4690;52.422;13.486;2024-03-06T14:54:02;7.80;99.90
9305;DHT22;4690;52.422;13.486;2024-03-06T14:56:28;7.70;99.90
9305;DHT22;4690;52.422;13.486;2024-03-06T14:58:56;7.60;99.90
9305;DHT22;4690;52.422;13.486;2024-03-06T15:01:23;7.60;99.90
9305;DHT22;4690;52.422;13.486;2024-03-06T15:03:50;7.70;99.90
9305;DHT22;4690;52.422;13.486;2024-03-06T15:06:17;7.70;99.90
9305;DHT22;4690;52.422;13.486;2024-03-06T15:08:43;7.70;99.90
9305;DHT22;4690;52.422;13.486;2024-03-06T15:11:10;7.70;99.90
9305;DHT22;4690;52.422;13.486;2024-03-06T15:13:36;7.70;99.90
9305;DHT22;4690;52.422;13.486;2024-03-06T15:16:02;7.90;99.90
9305;DHT22;4690;52.422;13.486;2024-03-06T15:18:31;7.80;99.90
9305;DHT22;4690;52.422;13.486;2024-03-06T15:20:58;7.90;99.90
9305;DHT22;4690;52.422;13.486;2024-03-06T15:23:24;7.70;99.90
9305;DHT22;4690;52.422;13.486;2024-03-06T15:25:49;7.80;99.90
9305;DHT22;4690;52.422;13.486;2024-03-06T15:28:16;7.80;99.90
9305;DHT22;4690;52.422;13.486;2024-03-06T15:30:41;7.90;99.90
9305;DHT22;4690;52.422;13.486;2024-03-06T15:33:07;7.80;99.90
9305;DHT22;4690;52.422;13.486;2024-03-06T15:35:34;7.80;99.90
9305;DHT22;4690;52.422;13.486;2024-03-06T15:38:00;7.80;99.90
9305;DHT22;4690;52.422;13.486;2024-03-06T15:40:26;7.80;99.90
9305;DHT22;4690;52.422;13.486;2024-03-06T15:42:52;7.70;99.90
9305;DHT22;4690;52.422;13.486;2024-03-06T15:45:18;7.80;99.90
9305;DHT22;4690;52.422;13.486;2024-03-06T15:47:45;7.70;99.90
9305;DHT22;4690;52.422;13.486;2024-03-06T15:50:11;7.80;99.90
9305;DHT22;4690;52.422;13.486;2024-03-06T15:52:40;7.60;99.90
9305;DHT22;4690;52.422;13.486;2024-03-06T15:55:07;7.60;99.90
9305;DHT22;4690;52.422;13.486;2024-03-06T15:57:35;7.60;99.90
9305;DHT22;4690;52.422;13.486;2024-03-06T16:00:02;7.60;99.90
9305;DHT22;4690;52.422;13.486;2024-03-06T16:02:34;7.60;99.90
9305;DHT22;4690;52.422;13.486;2024-03-06T16:05:00;7.60;99.90
9305;DHT22;4690;52.422;13.486;2024-03-06T16:07:26;7.60;99.90
9305;DHT22;4690;52.422;13.486;2024-03-06T16:09:53;7.50;99.90
9305;DHT22;4690;52.422;13.486;2024-03-06T16:12:19;7.50;99.90
9305;DHT22;4690;52.422;13.486;2024-03-06T16:14:44;7.50;99.90
9305;DHT22;4690;52.422;13.486;2024-03-06T16:17:10;7.50;99.90
9305;DHT22;4690;52.422;13.486;2024-03-06T16:19:36;7.40;99.90
9305;DHT22;4690;52.422;13.486;2024-03-06T16:22:03;7.40;99.90
9305;DHT22;4690;52.422;13.486;2024-03-06T16:24:29;7.40;99.90